Dades de l'estació automàtica el Pont de Suert
Resum diari
21:30 TU| Temperatura mitjana | 11.2 °C | |
|---|---|---|
| Temperatura màxima | 17.0 °C | 12:08 TU |
| Temperatura mínima | 5.6 °C | 21:59 TU |
| Humitat relativa mitjana | 91% | |
| Precipitació acumulada | 14.2 mm | |
| Ratxa màxima del vent (10 m) | 24.1 km/h - 331º | 9:48 TU |
| Pressió atmosfèrica mitjana | 1012.5 hPa | |
| Irradiació solar global | 9.7 MJ/m2 | |
El tram horari està expressat en Temps Universal (TU). Cal sumar una hora en horari d'hivern i dues en horari d'estiu per passar a l'hora oficial.
el Pont de Suert
| Municipi | El Pont de Suert |
|---|---|
| Comarca | Alta Ribagorça |
| Altitud | 824 m |
| Data alta | 14.02.1996 |
| Estat actual | Operativa |
| Període TU |
TM °C |
TX °C |
TN °C |
HRM % |
PPT mm |
VVM (10 m) km/h |
DVM (10 m) graus |
VVX (10 m) km/h |
PM hPa |
RS W/m2 |
|---|---|---|---|---|---|---|---|---|---|---|
| 00:00 - 00:30 | 10.5 | 10.5 | 10.4 | 99 | 0.0 | 1.1 | 77 | 4.3 | 1014.1 | 0 |
| 00:30 - 01:00 | 10.5 | 10.5 | 10.4 | 99 | 0.0 | 1.4 | 149 | 4.3 | 1013.9 | 0 |
| 01:00 - 01:30 | 9.9 | 10.3 | 9.5 | 99 | 0.0 | 1.1 | 83 | 4.3 | 1013.8 | 0 |
| 01:30 - 02:00 | 9.5 | 9.7 | 9.4 | 99 | 0.0 | 1.8 | 42 | 5.8 | 1014.1 | 0 |
| 02:00 - 02:30 | 9.7 | 9.9 | 9.6 | 99 | 0.0 | 0.7 | 19 | 2.9 | 1014.0 | 0 |
| 02:30 - 03:00 | 9.7 | 9.8 | 9.5 | 99 | 0.0 | 0.4 | 66 | 2.2 | 1014.0 | 0 |
| 03:00 - 03:30 | 9.4 | 9.5 | 9.3 | 99 | 0.0 | 0.4 | 15 | 2.5 | 1014.1 | 0 |
| 03:30 - 04:00 | 9.5 | 9.6 | 9.4 | 99 | 0.6 | 0.0 | 205 | 2.5 | 1014.0 | 0 |
| 04:00 - 04:30 | 9.7 | 9.8 | 9.5 | 99 | 2.4 | 0.7 | 33 | 2.9 | 1014.0 | 0 |
| 04:30 - 05:00 | 9.8 | 9.9 | 9.8 | 99 | 1.2 | 2.9 | 351 | 6.5 | 1013.7 | 0 |
| 05:00 - 05:30 | 9.8 | 9.9 | 9.8 | 99 | 0.1 | 1.8 | 42 | 6.5 | 1013.5 | 8 |
| 05:30 - 06:00 | 10.0 | 10.2 | 9.9 | 99 | 0.0 | 1.8 | 325 | 6.5 | 1013.5 | 36 |
| 06:00 - 06:30 | 10.3 | 10.5 | 10.2 | 99 | 0.0 | 0.7 | 0 | 5.0 | 1013.6 | 71 |
| 06:30 - 07:00 | 10.7 | 11.1 | 10.4 | 99 | 0.0 | 1.1 | 45 | 3.2 | 1013.5 | 139 |
| 07:00 - 07:30 | 11.5 | 12.0 | 11.0 | 97 | 0.0 | 0.7 | 55 | 3.2 | 1013.2 | 202 |
| 07:30 - 08:00 | 12.4 | 13.5 | 11.7 | 89 | 0.0 | 0.7 | 164 | 4.7 | 1012.9 | 377 |
| 08:00 - 08:30 | 13.3 | 13.6 | 13.1 | 83 | 0.0 | 1.8 | 156 | 5.0 | 1012.5 | 344 |
| 08:30 - 09:00 | 13.7 | 14.0 | 13.2 | 80 | 0.0 | 1.8 | 168 | 11.2 | 1012.2 | 295 |
| 09:00 - 09:30 | 13.9 | 14.2 | 13.6 | 79 | 0.0 | 7.9 | 342 | 19.1 | 1012.1 | 321 |
| 09:30 - 10:00 | 13.9 | 14.3 | 13.6 | 71 | 0.0 | 10.8 | 335 | 24.1 | 1012.2 | 335 |
| 10:00 - 10:30 | 13.8 | 14.5 | 13.5 | 73 | 0.0 | 6.5 | 345 | 16.6 | 1012.2 | 358 |
| 10:30 - 11:00 | 14.4 | 14.9 | 14.2 | 67 | 0.0 | 5.8 | 336 | 13.0 | 1011.9 | 357 |
| 11:00 - 11:30 | 15.1 | 15.7 | 14.6 | 67 | 0.0 | 5.8 | 335 | 13.3 | 1011.4 | 478 |
| 11:30 - 12:00 | 15.7 | 16.2 | 15.4 | 60 | 0.0 | 4.0 | 328 | 9.7 | 1010.8 | 439 |
| 12:00 - 12:30 | 16.4 | 17.0 | 15.9 | 60 | 0.0 | 5.0 | 336 | 11.5 | 1010.1 | 475 |
| 12:30 - 13:00 | 16.2 | 16.6 | 15.8 | 60 | 0.0 | 7.9 | 331 | 16.6 | 1009.8 | 407 |
| 13:00 - 13:30 | 15.0 | 15.9 | 13.8 | 69 | 0.1 | 6.1 | 344 | 18.7 | 1010.0 | 73 |
| 13:30 - 14:00 | 11.4 | 13.7 | 10.2 | 91 | 4.0 | 4.3 | 148 | 16.6 | 1011.6 | 150 |
| 14:00 - 14:30 | 11.2 | 11.6 | 10.9 | 97 | 0.0 | 2.5 | 355 | 6.5 | 1011.4 | 143 |
| 14:30 - 15:00 | 11.2 | 11.4 | 10.9 | 98 | 0.9 | 1.8 | 145 | 5.8 | 1011.2 | 57 |
| 15:00 - 15:30 | 11.2 | 11.4 | 10.8 | 99 | 2.5 | 0.7 | 204 | 3.6 | 1011.2 | 69 |
| 15:30 - 16:00 | 11.0 | 11.3 | 10.7 | 98 | 0.1 | 1.1 | 14 | 3.6 | 1011.3 | 105 |
| 16:00 - 16:30 | 11.1 | 11.2 | 10.8 | 98 | 1.5 | 3.2 | 348 | 11.5 | 1011.3 | 34 |
| 16:30 - 17:00 | 11.0 | 11.1 | 10.9 | 99 | 0.1 | 1.8 | 348 | 5.4 | 1011.3 | 22 |
| 17:00 - 17:30 | 10.9 | 11.0 | 10.8 | 99 | 0.3 | 0.7 | 95 | 3.6 | 1011.4 | 20 |
| 17:30 - 18:00 | 10.6 | 10.8 | 10.4 | 99 | 0.1 | 1.1 | 29 | 5.4 | 1011.6 | 41 |
| 18:00 - 18:30 | 10.5 | 10.6 | 10.4 | 98 | 0.2 | 1.1 | 132 | 4.3 | 1011.9 | 13 |
| 18:30 - 19:00 | 9.9 | 10.3 | 9.6 | 97 | 0.1 | 2.2 | 18 | 6.8 | 1012.3 | 7 |
| 19:00 - 19:30 | 9.4 | 9.5 | 9.2 | 98 | 0.0 | 1.1 | 354 | 5.4 | 1012.6 | 0 |
| 19:30 - 20:00 | 9.1 | 9.3 | 8.9 | 98 | 0.0 | 2.5 | 2 | 9.7 | 1012.8 | 0 |
| 20:00 - 20:30 | 8.3 | 8.8 | 7.6 | 98 | 0.0 | 1.1 | 27 | 5.4 | 1013.2 | 0 |
| 20:30 - 21:00 | 7.2 | 7.6 | 6.7 | 98 | 0.0 | 0.7 | 82 | 3.2 | 1014.0 | 0 |
| 21:00 - 21:30 | 6.4 | 6.8 | 6.1 | 99 | 0.0 | 1.1 | 22 | 5.8 | 1014.6 | 0 |
| 21:30 - 22:00 | 5.9 | 6.1 | 5.6 | 99 | 0.0 | 0.7 | 3 | 2.9 | 1014.9 | 0 |
Les dades en taronja només han passat un control de qualitat automàtic. Resta pendent la seva validació definitiva.